Terminal Aerodrome Forecast
Issued by NWS Cleveland, OH

Home | Current Version | Previous Version | Graphics & Text | Print | Product List | Glossary Off
Versions: 1 2 3 4 5 6 7 8 9 10 11 12 13 14 15 16 17

000
FTUS41 KCLE 051449 AAA
TAFCAK
TAF AMD
KCAK 051449Z 0515/0612 33006KT 6SM BR VCSH SCT008 OVC035
      TEMPO 0515/0517 BKN030 OVC060
     FM051700 36012KT P6SM SCT012 BKN030
     FM052000 02012G22KT P6SM OVC035
     FM060000 35010KT P6SM BKN050
     FM061000 35006KT P6SM SCT250=

USA.gov is the U.S. government's official web portal to all federal, state and local government web resources and services.